sensor_id;sensor_type;location;lat;lon;timestamp;pressure;altitude;pressure_sealevel;temperature;humidity
1401;BME280;46518;48.842;8.926;2023-04-05T00:01:32;97668.69;;;1.85;62.59
1401;BME280;46518;48.842;8.926;2023-04-05T00:04:02;97667.56;;;1.80;62.52
1401;BME280;46518;48.842;8.926;2023-04-05T00:06:33;97665.81;;;1.80;62.37
1401;BME280;46518;48.842;8.926;2023-04-05T00:09:04;97653.84;;;1.94;63.21
1401;BME280;46518;48.842;8.926;2023-04-05T00:11:32;97661.75;;;2.15;61.52
1401;BME280;46518;48.842;8.926;2023-04-05T00:14:02;97657.72;;;2.28;60.38
1401;BME280;46518;48.842;8.926;2023-04-05T00:16:30;97651.44;;;2.37;59.20
1401;BME280;46518;48.842;8.926;2023-04-05T00:18:58;97654.41;;;2.34;58.47
1401;BME280;46518;48.842;8.926;2023-04-05T00:21:28;97656.94;;;2.42;58.60
1401;BME280;46518;48.842;8.926;2023-04-05T00:23:58;97653.69;;;2.40;58.18
1401;BME280;46518;48.842;8.926;2023-04-05T00:26:26;97646.97;;;2.31;59.00
1401;BME280;46518;48.842;8.926;2023-04-05T00:28:56;97643.47;;;2.09;59.78
1401;BME280;46518;48.842;8.926;2023-04-05T00:31:24;97635.97;;;2.29;59.43
1401;BME280;46518;48.842;8.926;2023-04-05T00:33:53;97635.25;;;2.35;59.36
1401;BME280;46518;48.842;8.926;2023-04-05T00:36:22;97627.72;;;2.40;58.91
1401;BME280;46518;48.842;8.926;2023-04-05T00:38:50;97625.13;;;2.40;58.58
1401;BME280;46518;48.842;8.926;2023-04-05T00:41:20;97623.22;;;2.34;58.58
1401;BME280;46518;48.842;8.926;2023-04-05T00:43:49;97621.44;;;2.20;59.16
1401;BME280;46518;48.842;8.926;2023-04-05T00:46:18;97618.41;;;2.16;59.44
1401;BME280;46518;48.842;8.926;2023-04-05T00:48:46;97622.00;;;2.30;58.80
1401;BME280;46518;48.842;8.926;2023-04-05T00:51:14;97630.69;;;2.22;58.73
1401;BME280;46518;48.842;8.926;2023-04-05T00:53:43;97624.50;;;2.23;59.47
1401;BME280;46518;48.842;8.926;2023-04-05T00:56:13;97621.81;;;2.16;59.70
1401;BME280;46518;48.842;8.926;2023-04-05T00:58:44;97608.13;;;2.08;59.97
1401;BME280;46518;48.842;8.926;2023-04-05T01:01:17;97615.09;;;1.92;59.78
1401;BME280;46518;48.842;8.926;2023-04-05T01:03:48;97610.44;;;1.88;60.16
1401;BME280;46518;48.842;8.926;2023-04-05T01:06:39;97609.81;;;2.01;60.77
1401;BME280;46518;48.842;8.926;2023-04-05T01:09:16;97605.25;;;1.88;61.23
1401;BME280;46518;48.842;8.926;2023-04-05T01:11:46;97608.16;;;1.55;62.23
1401;BME280;46518;48.842;8.926;2023-04-05T01:14:17;97596.66;;;1.49;62.86
1401;BME280;46518;48.842;8.926;2023-04-05T01:16:45;97596.63;;;1.72;62.28
1401;BME280;46518;48.842;8.926;2023-04-05T01:19:15;97590.88;;;1.77;62.06
1401;BME280;46518;48.842;8.926;2023-04-05T01:22:09;97600.38;;;1.70;62.04
1401;BME280;46518;48.842;8.926;2023-04-05T01:24:52;97584.16;;;1.53;62.83
1401;BME280;46518;48.842;8.926;2023-04-05T01:27:43;97594.69;;;1.51;63.87
1401;BME280;46518;48.842;8.926;2023-04-05T01:30:19;97589.53;;;1.66;63.29
1401;BME280;46518;48.842;8.926;2023-04-05T01:32:59;97594.97;;;1.57;63.15
1401;BME280;46518;48.842;8.926;2023-04-05T01:35:36;97590.25;;;1.60;63.98
1401;BME280;46518;48.842;8.926;2023-04-05T01:38:10;97592.06;;;1.37;63.62
1401;BME280;46518;48.842;8.926;2023-04-05T01:40:41;97588.69;;;1.36;63.00
1401;BME280;46518;48.842;8.926;2023-04-05T01:43:13;97583.16;;;1.16;63.86
1401;BME280;46518;48.842;8.926;2023-04-05T01:45:43;97580.56;;;1.16;65.04
1401;BME280;46518;48.842;8.926;2023-04-05T01:48:13;97577.53;;;1.13;64.82
1401;BME280;46518;48.842;8.926;2023-04-05T01:50:41;97583.31;;;0.92;65.71
1401;BME280;46518;48.842;8.926;2023-04-05T01:53:10;97574.97;;;1.04;65.92
1401;BME280;46518;48.842;8.926;2023-04-05T01:55:38;97577.03;;;1.09;66.30
1401;BME280;46518;48.842;8.926;2023-04-05T01:58:07;97581.88;;;1.12;66.10
1401;BME280;46518;48.842;8.926;2023-04-05T02:00:36;97564.59;;;1.04;66.33
1401;BME280;46518;48.842;8.926;2023-04-05T02:03:06;97570.50;;;0.98;66.41
1401;BME280;46518;48.842;8.926;2023-04-05T02:05:35;97564.84;;;0.95;67.90
1401;BME280;46518;48.842;8.926;2023-04-05T02:08:03;97561.50;;;0.86;67.45
1401;BME280;46518;48.842;8.926;2023-04-05T02:10:31;97572.91;;;1.00;67.32
1401;BME280;46518;48.842;8.926;2023-04-05T02:12:59;97570.75;;;1.26;66.07
1401;BME280;46518;48.842;8.926;2023-04-05T02:15:29;97566.09;;;1.22;62.58
1401;BME280;46518;48.842;8.926;2023-04-05T02:17:57;97560.53;;;1.10;63.76
1401;BME280;46518;48.842;8.926;2023-04-05T02:20:29;97555.47;;;0.94;65.43
1401;BME280;46518;48.842;8.926;2023-04-05T02:22:58;97556.09;;;0.96;65.33
1401;BME280;46518;48.842;8.926;2023-04-05T02:25:30;97552.91;;;1.08;65.25
1401;BME280;46518;48.842;8.926;2023-04-05T02:28:03;97555.50;;;1.08;65.91
1401;BME280;46518;48.842;8.926;2023-04-05T02:30:32;97564.09;;;1.09;66.40
1401;BME280;46518;48.842;8.926;2023-04-05T02:33:00;97555.28;;;0.95;66.53
1401;BME280;46518;48.842;8.926;2023-04-05T02:35:30;97553.03;;;0.92;66.68
1401;BME280;46518;48.842;8.926;2023-04-05T02:37:59;97551.88;;;0.72;67.38
1401;BME280;46518;48.842;8.926;2023-04-05T02:40:27;97551.78;;;0.88;67.42
1401;BME280;46518;48.842;8.926;2023-04-05T02:42:56;97554.09;;;0.83;66.79
1401;BME280;46518;48.842;8.926;2023-04-05T02:45:24;97560.06;;;0.60;66.37
1401;BME280;46518;48.842;8.926;2023-04-05T02:47:56;97561.91;;;0.43;66.10
1401;BME280;46518;48.842;8.926;2023-04-05T02:50:28;97551.78;;;0.57;66.02
1401;BME280;46518;48.842;8.926;2023-04-05T02:52:57;97555.06;;;0.19;66.75
1401;BME280;46518;48.842;8.926;2023-04-05T02:55:27;97557.19;;;0.16;68.32
1401;BME280;46518;48.842;8.926;2023-04-05T02:57:58;97554.34;;;0.34;67.96
1401;BME280;46518;48.842;8.926;2023-04-05T03:00:36;97554.56;;;0.55;67.72
1401;BME280;46518;48.842;8.926;2023-04-05T03:03:05;97548.19;;;0.66;67.69
1401;BME280;46518;48.842;8.926;2023-04-05T03:05:37;97547.88;;;0.38;68.15
1401;BME280;46518;48.842;8.926;2023-04-05T03:08:10;97543.44;;;0.47;68.09
1401;BME280;46518;48.842;8.926;2023-04-05T03:10:51;97545.44;;;0.68;67.50
1401;BME280;46518;48.842;8.926;2023-04-05T03:13:19;97544.22;;;0.78;66.79
1401;BME280;46518;48.842;8.926;2023-04-05T03:15:52;97538.97;;;0.86;66.31
1401;BME280;46518;48.842;8.926;2023-04-05T03:18:24;97536.53;;;0.70;65.91
1401;BME280;46518;48.842;8.926;2023-04-05T03:20:56;97538.41;;;0.76;65.70
1401;BME280;46518;48.842;8.926;2023-04-05T03:23:28;97534.22;;;0.75;66.85
1401;BME280;46518;48.842;8.926;2023-04-05T03:25:58;97537.31;;;0.48;65.71
1401;BME280;46518;48.842;8.926;2023-04-05T03:28:30;97539.47;;;0.36;66.21
1401;BME280;46518;48.842;8.926;2023-04-05T03:31:02;97537.16;;;0.41;67.58
1401;BME280;46518;48.842;8.926;2023-04-05T03:33:31;97530.41;;;0.63;65.91
1401;BME280;46518;48.842;8.926;2023-04-05T03:35:59;97530.75;;;0.29;66.82
1401;BME280;46518;48.842;8.926;2023-04-05T03:38:33;97530.84;;;0.43;67.68
1401;BME280;46518;48.842;8.926;2023-04-05T03:41:13;97537.91;;;0.50;68.03
1401;BME280;46518;48.842;8.926;2023-04-05T03:43:42;97543.94;;;0.50;67.81
1401;BME280;46518;48.842;8.926;2023-04-05T03:46:10;97541.66;;;0.47;66.74
1401;BME280;46518;48.842;8.926;2023-04-05T03:48:38;97534.59;;;0.02;66.49
1401;BME280;46518;48.842;8.926;2023-04-05T03:51:08;97533.94;;;0.08;67.28
1401;BME280;46518;48.842;8.926;2023-04-05T03:53:38;97530.28;;;-0.14;67.90
1401;BME280;46518;48.842;8.926;2023-04-05T03:56:06;97537.09;;;-0.22;69.20
1401;BME280;46518;48.842;8.926;2023-04-05T03:58:43;97528.28;;;0.04;69.58
1401;BME280;46518;48.842;8.926;2023-04-05T04:01:14;97534.09;;;0.06;70.21
1401;BME280;46518;48.842;8.926;2023-04-05T04:03:42;97538.72;;;0.19;68.72
1401;BME280;46518;48.842;8.926;2023-04-05T04:06:10;97531.81;;;0.11;70.04
1401;BME280;46518;48.842;8.926;2023-04-05T04:08:41;97537.22;;;0.33;69.19
1401;BME280;46518;48.842;8.926;2023-04-05T04:11:09;97532.34;;;0.30;67.48
1401;BME280;46518;48.842;8.926;2023-04-05T04:13:39;97535.88;;;-0.03;67.10
1401;BME280;46518;48.842;8.926;2023-04-05T04:16:16;97539.78;;;0.02;67.43
1401;BME280;46518;48.842;8.926;2023-04-05T04:19:00;97540.78;;;0.32;67.45
1401;BME280;46518;48.842;8.926;2023-04-05T04:21:28;97534.94;;;0.38;66.96
1401;BME280;46518;48.842;8.926;2023-04-05T04:24:25;97536.88;;;0.36;66.35
1401;BME280;46518;48.842;8.926;2023-04-05T04:27:12;97526.63;;;0.11;67.11
1401;BME280;46518;48.842;8.926;2023-04-05T04:30:09;97531.00;;;0.11;68.80
1401;BME280;46518;48.842;8.926;2023-04-05T04:32:59;97521.03;;;0.31;67.87
1401;BME280;46518;48.842;8.926;2023-04-05T04:36:06;97519.41;;;0.30;68.16
1401;BME280;46518;48.842;8.926;2023-04-05T04:39:10;97524.63;;;0.21;67.68
1401;BME280;46518;48.842;8.926;2023-04-05T04:42:07;97534.50;;;0.26;67.64
1401;BME280;46518;48.842;8.926;2023-04-05T04:44:56;97534.34;;;0.19;67.96
1401;BME280;46518;48.842;8.926;2023-04-05T04:47:47;97536.19;;;0.11;68.93
1401;BME280;46518;48.842;8.926;2023-04-05T04:50:44;97537.84;;;-0.05;68.50
1401;BME280;46518;48.842;8.926;2023-04-05T04:53:13;97531.41;;;-0.09;69.02
1401;BME280;46518;48.842;8.926;2023-04-05T04:55:43;97538.22;;;-0.16;69.79
1401;BME280;46518;48.842;8.926;2023-04-05T04:58:13;97540.81;;;-0.24;70.48
1401;BME280;46518;48.842;8.926;2023-04-05T05:00:45;97544.19;;;-0.07;69.88
1401;BME280;46518;48.842;8.926;2023-04-05T05:03:14;97546.88;;;-0.01;69.55
1401;BME280;46518;48.842;8.926;2023-04-05T05:05:42;97545.59;;;0.04;67.95
1401;BME280;46518;48.842;8.926;2023-04-05T05:08:11;97544.41;;;-0.33;69.09
1401;BME280;46518;48.842;8.926;2023-04-05T05:10:40;97543.31;;;-0.47;69.64
1401;BME280;46518;48.842;8.926;2023-04-05T05:13:09;97549.16;;;-0.70;72.99
1401;BME280;46518;48.842;8.926;2023-04-05T05:15:40;97550.28;;;-0.72;74.36
1401;BME280;46518;48.842;8.926;2023-04-05T05:18:08;97546.34;;;-0.35;72.74
1401;BME280;46518;48.842;8.926;2023-04-05T05:20:38;97546.34;;;-0.35;70.71
1401;BME280;46518;48.842;8.926;2023-04-05T05:23:07;97543.81;;;-0.60;72.36
1401;BME280;46518;48.842;8.926;2023-04-05T05:25:35;97536.97;;;-0.36;73.75
1401;BME280;46518;48.842;8.926;2023-04-05T05:28:04;97538.03;;;-0.06;73.23
1401;BME280;46518;48.842;8.926;2023-04-05T05:30:32;97543.75;;;0.20;72.27
1401;BME280;46518;48.842;8.926;2023-04-05T05:33:02;97533.69;;;0.26;71.96
1401;BME280;46518;48.842;8.926;2023-04-05T05:35:31;97540.56;;;0.41;71.29
1401;BME280;46518;48.842;8.926;2023-04-05T05:37:59;97548.13;;;0.12;69.56
1401;BME280;46518;48.842;8.926;2023-04-05T05:40:28;97533.19;;;0.30;70.37
1401;BME280;46518;48.842;8.926;2023-04-05T05:42:56;97539.34;;;0.52;70.20
1401;BME280;46518;48.842;8.926;2023-04-05T05:45:24;97536.53;;;0.70;70.06
1401;BME280;46518;48.842;8.926;2023-04-05T05:47:53;97541.44;;;0.80;69.34
1401;BME280;46518;48.842;8.926;2023-04-05T05:50:24;97538.13;;;0.94;67.71
1401;BME280;46518;48.842;8.926;2023-04-05T05:52:53;97543.78;;;0.98;68.40
1401;BME280;46518;48.842;8.926;2023-04-05T05:55:21;97549.88;;;1.05;67.92
1401;BME280;46518;48.842;8.926;2023-04-05T05:57:49;97547.22;;;1.13;67.36
1401;BME280;46518;48.842;8.926;2023-04-05T06:00:19;97545.94;;;1.09;67.13
1401;BME280;46518;48.842;8.926;2023-04-05T06:02:48;97543.63;;;1.14;67.43
1401;BME280;46518;48.842;8.926;2023-04-05T06:05:16;97545.94;;;1.09;66.95
1401;BME280;46518;48.842;8.926;2023-04-05T06:07:48;97549.16;;;1.11;66.56
1401;BME280;46518;48.842;8.926;2023-04-05T06:10:16;97549.06;;;1.04;66.06
1401;BME280;46518;48.842;8.926;2023-04-05T06:12:45;97546.88;;;1.16;65.58
1401;BME280;46518;48.842;8.926;2023-04-05T06:15:13;97545.72;;;1.19;65.25
1401;BME280;46518;48.842;8.926;2023-04-05T06:17:42;97545.34;;;1.22;65.58
1401;BME280;46518;48.842;8.926;2023-04-05T06:20:11;97557.13;;;1.33;66.00
1401;BME280;46518;48.842;8.926;2023-04-05T06:22:39;97551.84;;;1.41;65.61
1401;BME280;46518;48.842;8.926;2023-04-05T06:25:09;97557.16;;;1.47;66.14
1401;BME280;46518;48.842;8.926;2023-04-05T06:27:38;97553.66;;;1.55;65.05
1401;BME280;46518;48.842;8.926;2023-04-05T06:30:07;97562.34;;;1.47;65.12
1401;BME280;46518;48.842;8.926;2023-04-05T06:32:36;97562.41;;;1.54;64.82
1401;BME280;46518;48.842;8.926;2023-04-05T06:35:06;97562.59;;;1.53;64.62
1401;BME280;46518;48.842;8.926;2023-04-05T06:37:34;97564.59;;;1.65;64.57
1401;BME280;46518;48.842;8.926;2023-04-05T06:40:03;97558.00;;;1.78;63.98
1401;BME280;46518;48.842;8.926;2023-04-05T06:42:33;97552.88;;;1.99;64.29
1401;BME280;46518;48.842;8.926;2023-04-05T06:45:05;97563.25;;;2.14;64.07
1401;BME280;46518;48.842;8.926;2023-04-05T06:51:40;97559.56;;;2.23;61.94
1401;BME280;46518;48.842;8.926;2023-04-05T06:54:08;97556.84;;;2.46;62.18
1401;BME280;46518;48.842;8.926;2023-04-05T06:56:37;97559.66;;;2.45;62.06
1401;BME280;46518;48.842;8.926;2023-04-05T06:59:07;97555.66;;;2.64;62.05
1401;BME280;46518;48.842;8.926;2023-04-05T07:01:35;97563.53;;;2.70;61.87
1401;BME280;46518;48.842;8.926;2023-04-05T07:04:04;97563.16;;;2.73;61.97
1401;BME280;46518;48.842;8.926;2023-04-05T07:06:32;97561.69;;;2.86;61.95
1401;BME280;46518;48.842;8.926;2023-04-05T07:09:04;97563.84;;;3.03;62.47
1401;BME280;46518;48.842;8.926;2023-04-05T07:11:33;97567.94;;;3.13;60.79
1401;BME280;46518;48.842;8.926;2023-04-05T07:14:01;97561.00;;;3.20;59.83
1401;BME280;46518;48.842;8.926;2023-04-05T07:16:30;97556.53;;;3.35;59.82
1401;BME280;46518;48.842;8.926;2023-04-05T07:18:59;97555.13;;;3.39;59.48
1401;BME280;46518;48.842;8.926;2023-04-05T07:21:27;97557.72;;;3.61;59.03
1401;BME280;46518;48.842;8.926;2023-04-05T07:23:56;97560.31;;;3.61;58.92
1401;BME280;46518;48.842;8.926;2023-04-05T07:26:26;97557.44;;;3.77;58.54
1401;BME280;46518;48.842;8.926;2023-04-05T07:28:54;97557.84;;;3.81;57.75
1401;BME280;46518;48.842;8.926;2023-04-05T07:31:23;97556.69;;;3.90;57.78
1401;BME280;46518;48.842;8.926;2023-04-05T07:33:52;97558.31;;;3.91;56.92
1401;BME280;46518;48.842;8.926;2023-04-05T07:36:20;97561.19;;;4.03;56.82
1401;BME280;46518;48.842;8.926;2023-04-05T07:38:49;97557.91;;;3.94;57.02
1401;BME280;46518;48.842;8.926;2023-04-05T07:41:17;97550.19;;;4.14;57.52
1401;BME280;46518;48.842;8.926;2023-04-05T07:43:46;97556.81;;;4.10;56.60
1401;BME280;46518;48.842;8.926;2023-04-05T07:46:14;97558.00;;;4.14;56.83
1401;BME280;46518;48.842;8.926;2023-04-05T07:48:45;97555.69;;;4.26;56.51
1401;BME280;46518;48.842;8.926;2023-04-05T07:51:15;97557.75;;;4.37;56.37
1401;BME280;46518;48.842;8.926;2023-04-05T07:53:43;97561.81;;;4.53;56.23
1401;BME280;46518;48.842;8.926;2023-04-05T07:56:12;97553.78;;;4.54;55.27
1401;BME280;46518;48.842;8.926;2023-04-05T07:58:40;97555.41;;;4.62;55.24
1401;BME280;46518;48.842;8.926;2023-04-05T08:01:09;97563.03;;;4.57;53.83
1401;BME280;46518;48.842;8.926;2023-04-05T08:03:38;97564.06;;;4.69;54.11
1401;BME280;46518;48.842;8.926;2023-04-05T08:06:10;97560.91;;;4.87;54.43
1401;BME280;46518;48.842;8.926;2023-04-05T08:08:40;97564.94;;;5.03;53.82
1401;BME280;46518;48.842;8.926;2023-04-05T08:11:08;97557.50;;;4.93;52.86
1401;BME280;46518;48.842;8.926;2023-04-05T08:13:37;97561.53;;;5.16;52.71
1401;BME280;46518;48.842;8.926;2023-04-05T08:16:07;97562.16;;;5.25;52.47
1401;BME280;46518;48.842;8.926;2023-04-05T08:18:36;97558.13;;;5.35;52.38
1401;BME280;46518;48.842;8.926;2023-04-05T08:21:04;97561.75;;;5.48;51.63
1401;BME280;46518;48.842;8.926;2023-04-05T08:23:32;97565.38;;;5.47;51.68
1401;BME280;46518;48.842;8.926;2023-04-05T08:26:02;97562.75;;;5.53;51.17
1401;BME280;46518;48.842;8.926;2023-04-05T08:28:31;97562.94;;;5.65;50.35
1401;BME280;46518;48.842;8.926;2023-04-05T08:30:59;97560.13;;;5.73;50.54
1401;BME280;46518;48.842;8.926;2023-04-05T08:33:27;97560.91;;;5.87;50.16
1401;BME280;46518;48.842;8.926;2023-04-05T08:35:57;97563.34;;;5.95;49.38
1401;BME280;46518;48.842;8.926;2023-04-05T08:38:30;97557.91;;;5.97;48.20
1401;BME280;46518;48.842;8.926;2023-04-05T08:41:06;97563.34;;;6.02;48.74
1401;BME280;46518;48.842;8.926;2023-04-05T08:43:46;97561.09;;;6.12;48.87
1401;BME280;46518;48.842;8.926;2023-04-05T08:46:15;97557.06;;;6.10;47.92
1401;BME280;46518;48.842;8.926;2023-04-05T08:48:44;97568.31;;;6.17;47.78
1401;BME280;46518;48.842;8.926;2023-04-05T08:51:17;97564.06;;;6.22;48.01
1401;BME280;46518;48.842;8.926;2023-04-05T08:53:46;97560.97;;;6.39;48.15
1401;BME280;46518;48.842;8.926;2023-04-05T08:56:19;97563.38;;;6.47;48.00
1401;BME280;46518;48.842;8.926;2023-04-05T08:58:53;97557.28;;;6.60;47.47
1401;BME280;46518;48.842;8.926;2023-04-05T09:01:24;97557.31;;;6.53;46.73
1401;BME280;46518;48.842;8.926;2023-04-05T09:03:56;97558.06;;;6.67;45.99
1401;BME280;46518;48.842;8.926;2023-04-05T09:06:25;97548.38;;;6.74;45.80
1401;BME280;46518;48.842;8.926;2023-04-05T09:08:56;97552.75;;;6.80;44.95
1401;BME280;46518;48.842;8.926;2023-04-05T09:11:26;97554.56;;;6.80;43.59
1401;BME280;46518;48.842;8.926;2023-04-05T09:13:54;97560.44;;;6.75;42.97
1401;BME280;46518;48.842;8.926;2023-04-05T09:16:24;97563.22;;;6.80;42.71
1401;BME280;46518;48.842;8.926;2023-04-05T09:18:54;97554.50;;;6.55;43.04
1401;BME280;46518;48.842;8.926;2023-04-05T09:21:22;97552.78;;;6.74;43.56
1401;BME280;46518;48.842;8.926;2023-04-05T09:23:52;97561.81;;;6.84;42.82
1401;BME280;46518;48.842;8.926;2023-04-05T09:26:23;97570.81;;;6.88;43.42
1401;BME280;46518;48.842;8.926;2023-04-05T09:28:59;97557.97;;;6.87;43.19
1401;BME280;46518;48.842;8.926;2023-04-05T09:31:32;97557.53;;;6.90;41.00
1401;BME280;46518;48.842;8.926;2023-04-05T09:34:06;97552.63;;;7.00;41.87
1401;BME280;46518;48.842;8.926;2023-04-05T09:36:42;97555.13;;;7.20;41.62
1401;BME280;46518;48.842;8.926;2023-04-05T09:39:11;97553.69;;;7.24;41.86
1401;BME280;46518;48.842;8.926;2023-04-05T09:41:39;97550.94;;;7.12;40.70
1401;BME280;46518;48.842;8.926;2023-04-05T09:44:09;97552.38;;;7.08;38.14
1401;BME280;46518;48.842;8.926;2023-04-05T09:46:38;97554.59;;;7.11;39.84
1401;BME280;46518;48.842;8.926;2023-04-05T09:49:08;97555.41;;;7.05;38.91
1401;BME280;46518;48.842;8.926;2023-04-05T09:51:37;97555.84;;;7.02;39.57
1401;BME280;46518;48.842;8.926;2023-04-05T09:54:10;97555.50;;;7.24;39.70
1401;BME280;46518;48.842;8.926;2023-04-05T09:56:40;97548.34;;;7.38;39.95
1401;BME280;46518;48.842;8.926;2023-04-05T09:59:22;97543.84;;;7.45;40.68
1401;BME280;46518;48.842;8.926;2023-04-05T10:01:51;97547.66;;;7.49;40.38
1401;BME280;46518;48.842;8.926;2023-04-05T10:04:19;97536.16;;;7.50;40.62
1401;BME280;46518;48.842;8.926;2023-04-05T10:06:49;97532.91;;;7.54;40.62
1401;BME280;46518;48.842;8.926;2023-04-05T10:09:17;97531.97;;;7.67;40.36
1401;BME280;46518;48.842;8.926;2023-04-05T10:11:46;97536.03;;;7.63;40.44
1401;BME280;46518;48.842;8.926;2023-04-05T10:14:14;97526.16;;;7.65;40.68
1401;BME280;46518;48.842;8.926;2023-04-05T10:16:51;97505.34;;;7.70;41.39
1401;BME280;46518;48.842;8.926;2023-04-05T10:19:38;97524.56;;;7.83;40.48
1401;BME280;46518;48.842;8.926;2023-04-05T10:22:15;97518.28;;;7.84;39.49
1401;BME280;46518;48.842;8.926;2023-04-05T10:24:48;97521.66;;;7.91;40.08
1401;BME280;46518;48.842;8.926;2023-04-05T10:27:23;97518.63;;;7.94;38.88
1401;BME280;46518;48.842;8.926;2023-04-05T10:30:02;97515.91;;;8.00;38.20
1401;BME280;46518;48.842;8.926;2023-04-05T10:32:42;97518.47;;;8.07;39.42
1401;BME280;46518;48.842;8.926;2023-04-05T10:35:15;97517.38;;;8.15;38.57
1401;BME280;46518;48.842;8.926;2023-04-05T10:37:53;97519.63;;;8.11;38.85
1401;BME280;46518;48.842;8.926;2023-04-05T10:40:31;97492.09;;;8.02;38.13
1401;BME280;46518;48.842;8.926;2023-04-05T10:43:00;97520.66;;;8.10;37.79
1401;BME280;46518;48.842;8.926;2023-04-05T10:45:30;97513.66;;;8.23;37.54
1401;BME280;46518;48.842;8.926;2023-04-05T10:48:08;97515.47;;;8.22;37.96
1401;BME280;46518;48.842;8.926;2023-04-05T10:50:43;97504.34;;;8.27;36.54
1401;BME280;46518;48.842;8.926;2023-04-05T10:53:15;97516.63;;;8.08;37.04
1401;BME280;46518;48.842;8.926;2023-04-05T10:55:44;97512.19;;;8.08;37.85
1401;BME280;46518;48.842;8.926;2023-04-05T10:58:14;97514.03;;;8.08;37.46
1401;BME280;46518;48.842;8.926;2023-04-05T11:00:44;97507.84;;;8.02;38.01
1401;BME280;46518;48.842;8.926;2023-04-05T11:06:22;97499.09;;;8.08;37.50
1401;BME280;46518;48.842;8.926;2023-04-05T11:08:56;97495.94;;;7.81;35.94
1401;BME280;46518;48.842;8.926;2023-04-05T11:11:24;97485.09;;;7.96;38.04
1401;BME280;46518;48.842;8.926;2023-04-05T11:13:54;97490.06;;;8.23;38.15
1401;BME280;46518;48.842;8.926;2023-04-05T11:16:37;97486.53;;;8.47;37.76
1401;BME280;46518;48.842;8.926;2023-04-05T11:19:06;97477.59;;;8.36;37.75
1401;BME280;46518;48.842;8.926;2023-04-05T11:21:36;97480.13;;;8.43;37.37
1401;BME280;46518;48.842;8.926;2023-04-05T11:24:05;97481.94;;;8.73;37.61
1401;BME280;46518;48.842;8.926;2023-04-05T11:26:54;97482.00;;;8.84;39.18
1401;BME280;46518;48.842;8.926;2023-04-05T11:29:44;97480.28;;;8.90;39.12
1401;BME280;46518;48.842;8.926;2023-04-05T11:32:14;97486.47;;;9.07;37.88
1401;BME280;46518;48.842;8.926;2023-04-05T11:34:43;97469.03;;;9.01;37.12
1401;BME280;46518;48.842;8.926;2023-04-05T11:37:15;97473.00;;;8.92;37.32
1401;BME280;46518;48.842;8.926;2023-04-05T11:39:44;97469.03;;;9.25;36.54
1401;BME280;46518;48.842;8.926;2023-04-05T11:42:13;97467.78;;;9.27;37.30
1401;BME280;46518;48.842;8.926;2023-04-05T11:44:46;97464.13;;;9.40;37.36
1401;BME280;46518;48.842;8.926;2023-04-05T11:47:16;97455.56;;;9.57;37.12
1401;BME280;46518;48.842;8.926;2023-04-05T11:49:49;97442.41;;;9.45;35.52
1401;BME280;46518;48.842;8.926;2023-04-05T11:52:20;97461.16;;;9.48;35.53
1401;BME280;46518;48.842;8.926;2023-04-05T11:54:49;97454.06;;;9.61;34.31
1401;BME280;46518;48.842;8.926;2023-04-05T11:57:18;97461.38;;;9.35;34.46
1401;BME280;46518;48.842;8.926;2023-04-05T11:59:49;97460.69;;;9.40;34.22
1401;BME280;46518;48.842;8.926;2023-04-05T12:02:18;97459.13;;;8.61;34.02
1401;BME280;46518;48.842;8.926;2023-04-05T12:04:53;97456.28;;;8.75;36.66
1401;BME280;46518;48.842;8.926;2023-04-05T12:07:25;97444.50;;;9.19;37.16
1401;BME280;46518;48.842;8.926;2023-04-05T12:10:05;97450.88;;;9.35;35.45
1401;BME280;46518;48.842;8.926;2023-04-05T12:12:36;97447.56;;;9.52;34.86
1401;BME280;46518;48.842;8.926;2023-04-05T12:15:06;97451.88;;;9.69;35.44
1401;BME280;46518;48.842;8.926;2023-04-05T12:17:47;97448.44;;;9.81;36.09
1401;BME280;46518;48.842;8.926;2023-04-05T12:20:18;97440.44;;;9.76;35.07
1401;BME280;46518;48.842;8.926;2023-04-05T12:22:51;97436.94;;;9.23;34.36
1401;BME280;46518;48.842;8.926;2023-04-05T12:25:20;97430.53;;;9.54;35.58
1401;BME280;46518;48.842;8.926;2023-04-05T12:27:48;97434.44;;;9.40;34.52
1401;BME280;46518;48.842;8.926;2023-04-05T12:30:18;97428.25;;;9.46;33.44
1401;BME280;46518;48.842;8.926;2023-04-05T12:32:50;97432.13;;;9.55;34.15
1401;BME280;46518;48.842;8.926;2023-04-05T12:35:21;97430.88;;;9.58;34.70
1401;BME280;46518;48.842;8.926;2023-04-05T12:37:52;97434.19;;;9.65;34.30
1401;BME280;46518;48.842;8.926;2023-04-05T12:40:21;97427.75;;;9.84;34.93
1401;BME280;46518;48.842;8.926;2023-04-05T12:42:51;97426.47;;;9.99;34.51
1401;BME280;46518;48.842;8.926;2023-04-05T12:45:22;97422.06;;;10.16;34.07
1401;BME280;46518;48.842;8.926;2023-04-05T12:47:51;97423.06;;;10.15;34.77
1401;BME280;46518;48.842;8.926;2023-04-05T12:50:26;97418.84;;;10.14;33.94
1401;BME280;46518;48.842;8.926;2023-04-05T12:53:00;97412.16;;;10.23;33.66
1401;BME280;46518;48.842;8.926;2023-04-05T12:55:41;97410.78;;;10.32;34.45
1401;BME280;46518;48.842;8.926;2023-04-05T12:58:10;97410.34;;;10.52;33.84
1401;BME280;46518;48.842;8.926;2023-04-05T13:00:39;97404.78;;;10.49;34.21
1401;BME280;46518;48.842;8.926;2023-04-05T13:03:14;97402.97;;;10.66;33.58
1401;BME280;46518;48.842;8.926;2023-04-05T13:05:43;97406.69;;;10.70;33.58
1401;BME280;46518;48.842;8.926;2023-04-05T13:08:13;97407.19;;;10.84;33.01
1401;BME280;46518;48.842;8.926;2023-04-05T13:10:44;97405.25;;;10.63;31.43
1401;BME280;46518;48.842;8.926;2023-04-05T13:13:13;97400.44;;;10.43;32.77
1401;BME280;46518;48.842;8.926;2023-04-05T13:15:41;97405.72;;;10.14;32.59
1401;BME280;46518;48.842;8.926;2023-04-05T13:18:10;97406.16;;;9.82;34.22
1401;BME280;46518;48.842;8.926;2023-04-05T13:20:40;97394.25;;;9.91;34.43
1401;BME280;46518;48.842;8.926;2023-04-05T13:23:09;97391.38;;;10.22;34.69
1401;BME280;46518;48.842;8.926;2023-04-05T13:25:41;97387.28;;;10.43;33.85
1401;BME280;46518;48.842;8.926;2023-04-05T13:28:11;97383.44;;;10.05;32.50
1401;BME280;46518;48.842;8.926;2023-04-05T13:30:39;97393.25;;;10.09;34.39
1401;BME280;46518;48.842;8.926;2023-04-05T13:33:08;97373.13;;;10.44;33.60
1401;BME280;46518;48.842;8.926;2023-04-05T13:35:36;97377.66;;;10.48;33.57
1401;BME280;46518;48.842;8.926;2023-04-05T13:38:04;97379.72;;;10.63;33.33
1401;BME280;46518;48.842;8.926;2023-04-05T13:40:32;97375.28;;;10.64;33.83
1401;BME280;46518;48.842;8.926;2023-04-05T13:43:02;97373.69;;;10.79;33.59
1401;BME280;46518;48.842;8.926;2023-04-05T13:45:30;97364.16;;;10.95;32.68
1401;BME280;46518;48.842;8.926;2023-04-05T13:47:59;97358.94;;;10.78;31.96
1401;BME280;46518;48.842;8.926;2023-04-05T13:50:28;97358.38;;;10.93;32.27